sensor_id;sensor_type;location;lat;lon;timestamp;P1;durP1;ratioP1;P2;durP2;ratioP2
29210;SDS011;16250;49.932;10.980;2023-08-24T00:00:40;7.18;;;5.05;;
29210;SDS011;16250;49.932;10.980;2023-08-24T00:03:06;8.07;;;5.35;;
29210;SDS011;16250;49.932;10.980;2023-08-24T00:05:35;7.25;;;5.15;;
29210;SDS011;16250;49.932;10.980;2023-08-24T00:08:04;7.68;;;5.05;;
29210;SDS011;16250;49.932;10.980;2023-08-24T00:10:30;8.05;;;5.00;;
29210;SDS011;16250;49.932;10.980;2023-08-24T00:12:55;9.02;;;5.28;;
29210;SDS011;16250;49.932;10.980;2023-08-24T00:15:21;6.15;;;5.10;;
29210;SDS011;16250;49.932;10.980;2023-08-24T00:17:46;8.77;;;5.20;;
29210;SDS011;16250;49.932;10.980;2023-08-24T00:20:12;10.30;;;5.63;;
29210;SDS011;16250;49.932;10.980;2023-08-24T00:22:38;10.18;;;5.53;;
29210;SDS011;16250;49.932;10.980;2023-08-24T00:25:04;6.00;;;5.03;;
29210;SDS011;16250;49.932;10.980;2023-08-24T00:27:30;6.63;;;4.85;;
29210;SDS011;16250;49.932;10.980;2023-08-24T00:29:56;8.77;;;5.57;;
29210;SDS011;16250;49.932;10.980;2023-08-24T00:32:22;8.77;;;5.30;;
29210;SDS011;16250;49.932;10.980;2023-08-24T00:34:48;9.48;;;5.38;;
29210;SDS011;16250;49.932;10.980;2023-08-24T00:37:13;9.43;;;5.82;;
29210;SDS011;16250;49.932;10.980;2023-08-24T00:39:39;12.93;;;5.72;;
29210;SDS011;16250;49.932;10.980;2023-08-24T00:42:04;8.52;;;5.80;;
29210;SDS011;16250;49.932;10.980;2023-08-24T00:44:30;8.40;;;5.57;;
29210;SDS011;16250;49.932;10.980;2023-08-24T00:46:56;7.47;;;5.50;;
29210;SDS011;16250;49.932;10.980;2023-08-24T00:49:22;6.82;;;5.53;;
29210;SDS011;16250;49.932;10.980;2023-08-24T00:51:48;6.40;;;5.63;;
29210;SDS011;16250;49.932;10.980;2023-08-24T00:54:13;9.48;;;5.47;;
29210;SDS011;16250;49.932;10.980;2023-08-24T00:56:39;8.70;;;5.35;;
29210;SDS011;16250;49.932;10.980;2023-08-24T00:59:05;10.25;;;5.53;;
29210;SDS011;16250;49.932;10.980;2023-08-24T01:01:30;8.73;;;5.80;;
29210;SDS011;16250;49.932;10.980;2023-08-24T01:03:55;7.20;;;5.82;;
29210;SDS011;16250;49.932;10.980;2023-08-24T01:06:21;7.38;;;6.10;;
29210;SDS011;16250;49.932;10.980;2023-08-24T01:08:46;7.47;;;5.93;;
29210;SDS011;16250;49.932;10.980;2023-08-24T01:11:14;8.48;;;5.40;;
29210;SDS011;16250;49.932;10.980;2023-08-24T01:13:53;7.18;;;5.68;;
29210;SDS011;16250;49.932;10.980;2023-08-24T01:16:26;6.35;;;5.70;;
29210;SDS011;16250;49.932;10.980;2023-08-24T01:18:56;8.18;;;6.28;;
29210;SDS011;16250;49.932;10.980;2023-08-24T01:21:22;6.32;;;5.68;;
29210;SDS011;16250;49.932;10.980;2023-08-24T01:23:53;6.63;;;5.90;;
29210;SDS011;16250;49.932;10.980;2023-08-24T01:26:25;6.10;;;5.20;;
29210;SDS011;16250;49.932;10.980;2023-08-24T01:28:52;9.90;;;5.88;;
29210;SDS011;16250;49.932;10.980;2023-08-24T01:31:18;6.10;;;5.53;;
29210;SDS011;16250;49.932;10.980;2023-08-24T01:33:47;7.32;;;5.95;;
29210;SDS011;16250;49.932;10.980;2023-08-24T01:36:14;7.20;;;5.47;;
29210;SDS011;16250;49.932;10.980;2023-08-24T01:38:41;7.40;;;5.72;;
29210;SDS011;16250;49.932;10.980;2023-08-24T01:41:22;6.90;;;5.97;;
29210;SDS011;16250;49.932;10.980;2023-08-24T01:43:51;8.77;;;6.25;;
29210;SDS011;16250;49.932;10.980;2023-08-24T01:46:18;8.02;;;6.45;;
29210;SDS011;16250;49.932;10.980;2023-08-24T01:48:45;7.78;;;6.47;;
29210;SDS011;16250;49.932;10.980;2023-08-24T01:51:11;8.88;;;6.75;;
29210;SDS011;16250;49.932;10.980;2023-08-24T01:53:36;9.65;;;7.10;;
29210;SDS011;16250;49.932;10.980;2023-08-24T01:56:10;10.15;;;7.00;;
29210;SDS011;16250;49.932;10.980;2023-08-24T01:58:36;9.07;;;7.07;;
29210;SDS011;16250;49.932;10.980;2023-08-24T02:01:01;7.07;;;6.47;;
29210;SDS011;16250;49.932;10.980;2023-08-24T02:03:27;9.25;;;6.78;;
29210;SDS011;16250;49.932;10.980;2023-08-24T02:05:52;8.38;;;6.97;;
29210;SDS011;16250;49.932;10.980;2023-08-24T02:08:17;8.57;;;6.40;;
29210;SDS011;16250;49.932;10.980;2023-08-24T02:10:43;9.00;;;6.75;;
29210;SDS011;16250;49.932;10.980;2023-08-24T02:13:08;8.50;;;7.60;;
29210;SDS011;16250;49.932;10.980;2023-08-24T02:15:34;9.27;;;8.00;;
29210;SDS011;16250;49.932;10.980;2023-08-24T02:17:59;10.07;;;8.20;;
29210;SDS011;16250;49.932;10.980;2023-08-24T02:20:25;9.38;;;8.43;;
29210;SDS011;16250;49.932;10.980;2023-08-24T02:22:50;9.20;;;7.88;;
29210;SDS011;16250;49.932;10.980;2023-08-24T02:25:16;9.50;;;7.47;;
29210;SDS011;16250;49.932;10.980;2023-08-24T02:27:41;9.55;;;7.10;;
29210;SDS011;16250;49.932;10.980;2023-08-24T02:30:07;8.02;;;7.22;;
29210;SDS011;16250;49.932;10.980;2023-08-24T02:32:32;8.40;;;7.00;;
29210;SDS011;16250;49.932;10.980;2023-08-24T02:34:58;8.73;;;6.32;;
29210;SDS011;16250;49.932;10.980;2023-08-24T02:37:23;10.25;;;7.60;;
29210;SDS011;16250;49.932;10.980;2023-08-24T02:39:49;10.55;;;7.90;;
29210;SDS011;16250;49.932;10.980;2023-08-24T02:42:15;9.10;;;6.95;;
29210;SDS011;16250;49.932;10.980;2023-08-24T02:44:40;9.38;;;7.45;;
29210;SDS011;16250;49.932;10.980;2023-08-24T02:47:05;9.13;;;7.65;;
29210;SDS011;16250;49.932;10.980;2023-08-24T02:49:31;10.60;;;6.70;;
29210;SDS011;16250;49.932;10.980;2023-08-24T02:51:56;9.40;;;7.57;;
29210;SDS011;16250;49.932;10.980;2023-08-24T02:54:22;9.05;;;7.63;;
29210;SDS011;16250;49.932;10.980;2023-08-24T02:56:48;9.68;;;8.57;;
29210;SDS011;16250;49.932;10.980;2023-08-24T02:59:13;10.50;;;9.40;;
29210;SDS011;16250;49.932;10.980;2023-08-24T03:01:39;11.82;;;9.75;;
29210;SDS011;16250;49.932;10.980;2023-08-24T03:04:06;11.13;;;9.77;;
29210;SDS011;16250;49.932;10.980;2023-08-24T03:06:31;11.32;;;9.50;;
29210;SDS011;16250;49.932;10.980;2023-08-24T03:08:57;10.55;;;8.23;;
29210;SDS011;16250;49.932;10.980;2023-08-24T03:11:22;11.60;;;7.85;;
29210;SDS011;16250;49.932;10.980;2023-08-24T03:13:48;9.00;;;8.13;;
29210;SDS011;16250;49.932;10.980;2023-08-24T03:16:14;10.90;;;8.57;;
29210;SDS011;16250;49.932;10.980;2023-08-24T03:18:39;9.48;;;8.50;;
29210;SDS011;16250;49.932;10.980;2023-08-24T03:21:05;10.65;;;8.05;;
29210;SDS011;16250;49.932;10.980;2023-08-24T03:23:33;11.00;;;8.18;;
29210;SDS011;16250;49.932;10.980;2023-08-24T03:25:58;9.30;;;8.40;;
29210;SDS011;16250;49.932;10.980;2023-08-24T03:28:24;8.50;;;7.63;;
29210;SDS011;16250;49.932;10.980;2023-08-24T03:30:52;9.07;;;7.32;;
29210;SDS011;16250;49.932;10.980;2023-08-24T03:33:21;8.95;;;8.02;;
29210;SDS011;16250;49.932;10.980;2023-08-24T03:35:46;11.43;;;7.15;;
29210;SDS011;16250;49.932;10.980;2023-08-24T03:38:13;9.40;;;7.85;;
29210;SDS011;16250;49.932;10.980;2023-08-24T03:40:38;7.93;;;7.00;;
29210;SDS011;16250;49.932;10.980;2023-08-24T03:43:04;9.43;;;8.50;;
29210;SDS011;16250;49.932;10.980;2023-08-24T03:45:29;10.43;;;9.32;;
29210;SDS011;16250;49.932;10.980;2023-08-24T03:47:55;11.45;;;10.25;;
29210;SDS011;16250;49.932;10.980;2023-08-24T03:50:20;10.68;;;9.50;;
29210;SDS011;16250;49.932;10.980;2023-08-24T03:52:47;9.80;;;8.80;;
29210;SDS011;16250;49.932;10.980;2023-08-24T03:55:15;9.07;;;8.27;;
29210;SDS011;16250;49.932;10.980;2023-08-24T03:57:42;9.27;;;8.45;;
29210;SDS011;16250;49.932;10.980;2023-08-24T04:00:08;8.93;;;8.07;;
29210;SDS011;16250;49.932;10.980;2023-08-24T04:02:40;9.02;;;8.18;;
29210;SDS011;16250;49.932;10.980;2023-08-24T04:05:07;11.75;;;9.32;;
29210;SDS011;16250;49.932;10.980;2023-08-24T04:07:33;9.27;;;8.38;;
29210;SDS011;16250;49.932;10.980;2023-08-24T04:10:01;9.45;;;8.65;;
29210;SDS011;16250;49.932;10.980;2023-08-24T04:12:28;11.82;;;8.68;;
29210;SDS011;16250;49.932;10.980;2023-08-24T04:14:54;12.15;;;9.43;;
29210;SDS011;16250;49.932;10.980;2023-08-24T04:17:19;11.57;;;9.68;;
29210;SDS011;16250;49.932;10.980;2023-08-24T04:19:44;9.60;;;8.68;;
29210;SDS011;16250;49.932;10.980;2023-08-24T04:22:10;9.27;;;8.02;;
29210;SDS011;16250;49.932;10.980;2023-08-24T04:24:35;9.85;;;8.85;;
29210;SDS011;16250;49.932;10.980;2023-08-24T04:27:00;10.48;;;8.05;;
29210;SDS011;16250;49.932;10.980;2023-08-24T04:29:26;8.93;;;8.02;;
29210;SDS011;16250;49.932;10.980;2023-08-24T04:31:51;10.05;;;8.38;;
29210;SDS011;16250;49.932;10.980;2023-08-24T04:34:17;11.45;;;8.10;;
29210;SDS011;16250;49.932;10.980;2023-08-24T04:36:43;9.38;;;8.40;;
29210;SDS011;16250;49.932;10.980;2023-08-24T04:39:08;10.95;;;8.30;;
29210;SDS011;16250;49.932;10.980;2023-08-24T04:41:34;12.82;;;10.23;;
29210;SDS011;16250;49.932;10.980;2023-08-24T04:43:59;12.20;;;10.73;;
29210;SDS011;16250;49.932;10.980;2023-08-24T04:46:25;11.10;;;9.93;;
29210;SDS011;16250;49.932;10.980;2023-08-24T04:48:51;10.68;;;9.45;;
29210;SDS011;16250;49.932;10.980;2023-08-24T04:51:16;14.73;;;9.80;;
29210;SDS011;16250;49.932;10.980;2023-08-24T04:53:42;11.18;;;9.10;;
29210;SDS011;16250;49.932;10.980;2023-08-24T04:56:07;10.25;;;9.02;;
29210;SDS011;16250;49.932;10.980;2023-08-24T04:58:33;9.57;;;8.35;;
29210;SDS011;16250;49.932;10.980;2023-08-24T05:00:59;11.20;;;8.32;;
29210;SDS011;16250;49.932;10.980;2023-08-24T05:03:24;10.95;;;9.40;;
29210;SDS011;16250;49.932;10.980;2023-08-24T05:05:50;12.90;;;10.10;;
29210;SDS011;16250;49.932;10.980;2023-08-24T05:08:15;10.57;;;8.88;;
29210;SDS011;16250;49.932;10.980;2023-08-24T05:10:40;11.82;;;10.13;;
29210;SDS011;16250;49.932;10.980;2023-08-24T05:13:06;10.45;;;9.55;;
29210;SDS011;16250;49.932;10.980;2023-08-24T05:15:31;11.27;;;9.73;;
29210;SDS011;16250;49.932;10.980;2023-08-24T05:17:57;10.55;;;8.88;;
29210;SDS011;16250;49.932;10.980;2023-08-24T05:20:24;10.13;;;7.70;;
29210;SDS011;16250;49.932;10.980;2023-08-24T05:22:50;8.35;;;7.50;;
29210;SDS011;16250;49.932;10.980;2023-08-24T05:25:16;8.90;;;8.07;;
29210;SDS011;16250;49.932;10.980;2023-08-24T05:27:41;9.68;;;8.68;;
29210;SDS011;16250;49.932;10.980;2023-08-24T05:30:07;13.02;;;9.05;;
29210;SDS011;16250;49.932;10.980;2023-08-24T05:32:32;10.20;;;9.15;;
29210;SDS011;16250;49.932;10.980;2023-08-24T05:34:59;10.38;;;8.55;;
29210;SDS011;16250;49.932;10.980;2023-08-24T05:37:24;10.48;;;9.32;;
29210;SDS011;16250;49.932;10.980;2023-08-24T05:39:49;10.05;;;9.13;;
29210;SDS011;16250;49.932;10.980;2023-08-24T05:42:15;11.93;;;9.57;;
29210;SDS011;16250;49.932;10.980;2023-08-24T05:44:40;14.52;;;10.52;;
29210;SDS011;16250;49.932;10.980;2023-08-24T05:47:06;11.30;;;10.23;;
29210;SDS011;16250;49.932;10.980;2023-08-24T05:49:31;13.63;;;9.88;;
29210;SDS011;16250;49.932;10.980;2023-08-24T05:51:57;13.50;;;9.90;;
29210;SDS011;16250;49.932;10.980;2023-08-24T05:54:22;12.50;;;9.52;;
29210;SDS011;16250;49.932;10.980;2023-08-24T05:56:48;8.90;;;8.00;;
29210;SDS011;16250;49.932;10.980;2023-08-24T05:59:13;11.73;;;8.55;;
29210;SDS011;16250;49.932;10.980;2023-08-24T06:01:39;11.02;;;8.45;;
29210;SDS011;16250;49.932;10.980;2023-08-24T06:04:06;9.75;;;8.45;;
29210;SDS011;16250;49.932;10.980;2023-08-24T06:06:31;15.65;;;8.93;;
29210;SDS011;16250;49.932;10.980;2023-08-24T06:08:57;12.43;;;9.27;;
29210;SDS011;16250;49.932;10.980;2023-08-24T06:11:23;9.30;;;8.32;;
29210;SDS011;16250;49.932;10.980;2023-08-24T06:13:48;10.88;;;8.23;;
29210;SDS011;16250;49.932;10.980;2023-08-24T06:16:14;8.80;;;7.00;;
29210;SDS011;16250;49.932;10.980;2023-08-24T06:18:39;12.52;;;8.52;;
29210;SDS011;16250;49.932;10.980;2023-08-24T06:21:05;10.20;;;9.13;;
29210;SDS011;16250;49.932;10.980;2023-08-24T06:23:30;10.15;;;9.07;;
29210;SDS011;16250;49.932;10.980;2023-08-24T06:25:55;11.82;;;9.60;;
29210;SDS011;16250;49.932;10.980;2023-08-24T06:28:21;11.55;;;9.38;;
29210;SDS011;16250;49.932;10.980;2023-08-24T06:30:47;13.43;;;9.38;;
29210;SDS011;16250;49.932;10.980;2023-08-24T06:33:13;10.05;;;9.07;;
29210;SDS011;16250;49.932;10.980;2023-08-24T06:35:38;14.88;;;9.50;;
29210;SDS011;16250;49.932;10.980;2023-08-24T06:38:04;12.40;;;8.30;;
29210;SDS011;16250;49.932;10.980;2023-08-24T06:40:29;10.30;;;8.63;;
29210;SDS011;16250;49.932;10.980;2023-08-24T06:42:55;14.95;;;8.70;;
29210;SDS011;16250;49.932;10.980;2023-08-24T06:45:21;9.45;;;8.25;;
29210;SDS011;16250;49.932;10.980;2023-08-24T06:47:46;9.10;;;7.63;;
29210;SDS011;16250;49.932;10.980;2023-08-24T06:50:12;12.48;;;7.90;;
29210;SDS011;16250;49.932;10.980;2023-08-24T06:52:37;11.00;;;7.65;;
29210;SDS011;16250;49.932;10.980;2023-08-24T06:55:03;8.95;;;7.05;;
29210;SDS011;16250;49.932;10.980;2023-08-24T06:57:28;11.15;;;6.97;;
29210;SDS011;16250;49.932;10.980;2023-08-24T06:59:54;14.32;;;7.25;;
29210;SDS011;16250;49.932;10.980;2023-08-24T07:02:19;10.05;;;7.30;;
29210;SDS011;16250;49.932;10.980;2023-08-24T07:04:45;12.23;;;6.47;;
29210;SDS011;16250;49.932;10.980;2023-08-24T07:07:10;9.93;;;5.88;;
29210;SDS011;16250;49.932;10.980;2023-08-24T07:09:36;11.63;;;6.30;;
29210;SDS011;16250;49.932;10.980;2023-08-24T07:12:04;6.40;;;5.82;;
29210;SDS011;16250;49.932;10.980;2023-08-24T07:14:35;8.73;;;7.40;;
29210;SDS011;16250;49.932;10.980;2023-08-24T07:17:01;10.15;;;7.00;;
29210;SDS011;16250;49.932;10.980;2023-08-24T07:19:26;11.93;;;7.65;;
29210;SDS011;16250;49.932;10.980;2023-08-24T07:21:52;9.93;;;7.60;;
29210;SDS011;16250;49.932;10.980;2023-08-24T07:24:17;13.82;;;8.75;;
29210;SDS011;16250;49.932;10.980;2023-08-24T07:26:45;18.05;;;9.48;;
29210;SDS011;16250;49.932;10.980;2023-08-24T07:29:11;17.80;;;9.20;;
29210;SDS011;16250;49.932;10.980;2023-08-24T07:31:36;12.80;;;9.13;;
29210;SDS011;16250;49.932;10.980;2023-08-24T07:34:02;13.38;;;9.20;;
29210;SDS011;16250;49.932;10.980;2023-08-24T07:36:28;13.77;;;8.80;;
29210;SDS011;16250;49.932;10.980;2023-08-24T07:38:53;13.10;;;9.05;;
29210;SDS011;16250;49.932;10.980;2023-08-24T07:41:19;12.23;;;8.60;;
29210;SDS011;16250;49.932;10.980;2023-08-24T07:43:44;18.33;;;8.48;;
29210;SDS011;16250;49.932;10.980;2023-08-24T07:46:09;13.63;;;8.70;;
29210;SDS011;16250;49.932;10.980;2023-08-24T07:48:35;14.02;;;8.98;;
29210;SDS011;16250;49.932;10.980;2023-08-24T07:51:01;11.38;;;8.88;;
29210;SDS011;16250;49.932;10.980;2023-08-24T07:53:26;11.80;;;8.95;;
29210;SDS011;16250;49.932;10.980;2023-08-24T07:55:52;13.43;;;8.15;;
29210;SDS011;16250;49.932;10.980;2023-08-24T07:58:19;9.70;;;7.05;;
29210;SDS011;16250;49.932;10.980;2023-08-24T08:00:44;12.02;;;7.70;;
29210;SDS011;16250;49.932;10.980;2023-08-24T08:03:09;12.05;;;7.88;;
29210;SDS011;16250;49.932;10.980;2023-08-24T08:05:35;8.73;;;7.50;;
29210;SDS011;16250;49.932;10.980;2023-08-24T08:08:00;9.32;;;7.43;;
29210;SDS011;16250;49.932;10.980;2023-08-24T08:10:26;12.18;;;7.22;;
29210;SDS011;16250;49.932;10.980;2023-08-24T08:12:51;10.25;;;7.40;;
29210;SDS011;16250;49.932;10.980;2023-08-24T08:15:16;10.45;;;6.88;;
29210;SDS011;16250;49.932;10.980;2023-08-24T08:17:42;10.23;;;7.00;;
29210;SDS011;16250;49.932;10.980;2023-08-24T08:20:07;10.02;;;6.95;;
29210;SDS011;16250;49.932;10.980;2023-08-24T08:22:33;10.05;;;6.70;;
29210;SDS011;16250;49.932;10.980;2023-08-24T08:25:03;11.18;;;6.50;;
29210;SDS011;16250;49.932;10.980;2023-08-24T08:27:29;11.57;;;6.35;;
29210;SDS011;16250;49.932;10.980;2023-08-24T08:29:54;13.07;;;7.00;;
29210;SDS011;16250;49.932;10.980;2023-08-24T08:32:19;10.75;;;6.80;;
29210;SDS011;16250;49.932;10.980;2023-08-24T08:34:45;12.90;;;6.32;;
29210;SDS011;16250;49.932;10.980;2023-08-24T08:37:10;8.90;;;5.88;;
29210;SDS011;16250;49.932;10.980;2023-08-24T08:39:36;7.78;;;5.90;;
29210;SDS011;16250;49.932;10.980;2023-08-24T08:42:01;9.68;;;4.82;;
29210;SDS011;16250;49.932;10.980;2023-08-24T08:44:29;8.07;;;5.25;;
29210;SDS011;16250;49.932;10.980;2023-08-24T08:46:56;11.32;;;5.05;;
29210;SDS011;16250;49.932;10.980;2023-08-24T08:49:22;6.88;;;4.70;;
29210;SDS011;16250;49.932;10.980;2023-08-24T08:51:47;6.80;;;4.55;;
29210;SDS011;16250;49.932;10.980;2023-08-24T08:54:13;9.25;;;4.70;;
29210;SDS011;16250;49.932;10.980;2023-08-24T08:56:39;10.98;;;4.60;;
29210;SDS011;16250;49.932;10.980;2023-08-24T08:59:05;10.68;;;4.93;;
29210;SDS011;16250;49.932;10.980;2023-08-24T09:01:32;6.68;;;4.70;;
29210;SDS011;16250;49.932;10.980;2023-08-24T09:03:58;6.38;;;5.03;;
29210;SDS011;16250;49.932;10.980;2023-08-24T09:06:23;7.35;;;4.30;;
29210;SDS011;16250;49.932;10.980;2023-08-24T09:08:49;8.57;;;4.65;;
29210;SDS011;16250;49.932;10.980;2023-08-24T09:11:15;6.97;;;4.07;;
29210;SDS011;16250;49.932;10.980;2023-08-24T09:13:42;7.55;;;4.30;;
29210;SDS011;16250;49.932;10.980;2023-08-24T09:16:08;6.82;;;4.43;;
29210;SDS011;16250;49.932;10.980;2023-08-24T09:18:35;8.75;;;4.20;;
29210;SDS011;16250;49.932;10.980;2023-08-24T09:21:12;6.43;;;3.95;;
29210;SDS011;16250;49.932;10.980;2023-08-24T09:23:42;8.80;;;4.47;;
29210;SDS011;16250;49.932;10.980;2023-08-24T09:26:26;7.43;;;3.97;;
29210;SDS011;16250;49.932;10.980;2023-08-24T09:28:56;6.47;;;4.07;;
29210;SDS011;16250;49.932;10.980;2023-08-24T09:31:22;7.78;;;4.43;;
29210;SDS011;16250;49.932;10.980;2023-08-24T09:33:48;7.15;;;4.50;;
29210;SDS011;16250;49.932;10.980;2023-08-24T09:36:13;9.02;;;4.20;;
29210;SDS011;16250;49.932;10.980;2023-08-24T09:38:45;7.30;;;4.05;;
29210;SDS011;16250;49.932;10.980;2023-08-24T09:41:11;6.75;;;4.35;;
29210;SDS011;16250;49.932;10.980;2023-08-24T09:43:36;9.90;;;4.18;;
29210;SDS011;16250;49.932;10.980;2023-08-24T09:46:02;4.78;;;3.83;;
29210;SDS011;16250;49.932;10.980;2023-08-24T09:48:29;5.25;;;3.78;;
29210;SDS011;16250;49.932;10.980;2023-08-24T09:50:56;9.73;;;4.25;;
29210;SDS011;16250;49.932;10.980;2023-08-24T09:53:22;5.90;;;3.80;;
29210;SDS011;16250;49.932;10.980;2023-08-24T09:55:54;5.10;;;3.97;;
29210;SDS011;16250;49.932;10.980;2023-08-24T09:58:22;5.03;;;3.50;;
29210;SDS011;16250;49.932;10.980;2023-08-24T10:00:48;7.50;;;3.90;;
29210;SDS011;16250;49.932;10.980;2023-08-24T10:03:24;6.45;;;4.00;;
29210;SDS011;16250;49.932;10.980;2023-08-24T10:05:51;4.90;;;3.95;;
29210;SDS011;16250;49.932;10.980;2023-08-24T10:08:23;5.38;;;3.88;;
29210;SDS011;16250;49.932;10.980;2023-08-24T10:10:53;5.75;;;4.00;;
29210;SDS011;16250;49.932;10.980;2023-08-24T10:13:39;7.22;;;3.72;;
29210;SDS011;16250;49.932;10.980;2023-08-24T10:16:08;7.65;;;4.05;;
29210;SDS011;16250;49.932;10.980;2023-08-24T10:18:35;5.63;;;4.18;;
29210;SDS011;16250;49.932;10.980;2023-08-24T10:21:02;5.97;;;3.55;;
29210;SDS011;16250;49.932;10.980;2023-08-24T10:23:28;4.10;;;3.50;;
29210;SDS011;16250;49.932;10.980;2023-08-24T10:25:54;5.45;;;3.85;;
29210;SDS011;16250;49.932;10.980;2023-08-24T10:28:20;5.63;;;3.65;;
29210;SDS011;16250;49.932;10.980;2023-08-24T10:30:46;6.15;;;3.70;;
29210;SDS011;16250;49.932;10.980;2023-08-24T10:33:13;8.98;;;3.78;;
29210;SDS011;16250;49.932;10.980;2023-08-24T10:35:39;6.75;;;3.55;;
29210;SDS011;16250;49.932;10.980;2023-08-24T10:38:05;7.45;;;3.78;;
29210;SDS011;16250;49.932;10.980;2023-08-24T10:40:34;6.38;;;3.75;;
29210;SDS011;16250;49.932;10.980;2023-08-24T10:43:04;6.95;;;3.72;;
29210;SDS011;16250;49.932;10.980;2023-08-24T10:48:24;4.90;;;3.78;;
29210;SDS011;16250;49.932;10.980;2023-08-24T10:53:45;10.05;;;4.20;;
29210;SDS011;16250;49.932;10.980;2023-08-24T10:56:11;5.88;;;4.05;;
29210;SDS011;16250;49.932;10.980;2023-08-24T10:58:40;6.70;;;4.15;;
29210;SDS011;16250;49.932;10.980;2023-08-24T11:01:06;6.88;;;3.80;;
29210;SDS011;16250;49.932;10.980;2023-08-24T11:03:31;7.28;;;3.80;;
29210;SDS011;16250;49.932;10.980;2023-08-24T11:06:00;6.63;;;3.92;;
29210;SDS011;16250;49.932;10.980;2023-08-24T11:08:47;5.30;;;4.30;;
29210;SDS011;16250;49.932;10.980;2023-08-24T11:16:42;6.55;;;4.20;;
29210;SDS011;16250;49.932;10.980;2023-08-24T11:19:08;4.53;;;4.07;;
29210;SDS011;16250;49.932;10.980;2023-08-24T11:21:39;6.45;;;3.72;;
29210;SDS011;16250;49.932;10.980;2023-08-24T11:24:05;7.35;;;4.18;;
29210;SDS011;16250;49.932;10.980;2023-08-24T11:26:31;5.22;;;3.40;;
29210;SDS011;16250;49.932;10.980;2023-08-24T11:28:56;6.93;;;3.67;;
29210;SDS011;16250;49.932;10.980;2023-08-24T11:31:26;4.35;;;3.20;;
29210;SDS011;16250;49.932;10.980;2023-08-24T11:33:54;5.22;;;3.55;;
29210;SDS011;16250;49.932;10.980;2023-08-24T11:36:21;4.38;;;3.40;;
29210;SDS011;16250;49.932;10.980;2023-08-24T11:38:46;5.80;;;3.70;;
29210;SDS011;16250;49.932;10.980;2023-08-24T11:41:15;5.28;;;3.60;;
29210;SDS011;16250;49.932;10.980;2023-08-24T11:43:42;5.13;;;3.72;;
29210;SDS011;16250;49.932;10.980;2023-08-24T11:46:08;4.47;;;3.70;;
29210;SDS011;16250;49.932;10.980;2023-08-24T11:48:34;6.80;;;4.18;;
29210;SDS011;16250;49.932;10.980;2023-08-24T11:51:01;4.57;;;3.88;;
29210;SDS011;16250;49.932;10.980;2023-08-24T11:53:27;6.10;;;3.83;;
29210;SDS011;16250;49.932;10.980;2023-08-24T11:55:54;4.80;;;3.72;;
29210;SDS011;16250;49.932;10.980;2023-08-24T11:58:19;6.57;;;4.28;;
29210;SDS011;16250;49.932;10.980;2023-08-24T12:00:45;6.63;;;3.90;;
29210;SDS011;16250;49.932;10.980;2023-08-24T12:03:11;5.88;;;4.00;;
29210;SDS011;16250;49.932;10.980;2023-08-24T12:05:37;7.25;;;4.45;;
29210;SDS011;16250;49.932;10.980;2023-08-24T12:08:03;8.05;;;4.30;;
29210;SDS011;16250;49.932;10.980;2023-08-24T12:10:31;5.15;;;3.90;;
29210;SDS011;16250;49.932;10.980;2023-08-24T12:13:06;6.60;;;3.85;;
29210;SDS011;16250;49.932;10.980;2023-08-24T12:15:35;5.80;;;4.28;;
29210;SDS011;16250;49.932;10.980;2023-08-24T12:18:13;5.15;;;3.70;;
29210;SDS011;16250;49.932;10.980;2023-08-24T12:20:39;6.50;;;4.10;;
29210;SDS011;16250;49.932;10.980;2023-08-24T12:23:06;7.38;;;3.97;;
29210;SDS011;16250;49.932;10.980;2023-08-24T12:25:35;5.82;;;4.00;;
29210;SDS011;16250;49.932;10.980;2023-08-24T12:28:08;5.93;;;3.90;;
29210;SDS011;16250;49.932;10.980;2023-08-24T12:30:47;5.90;;;3.92;;
29210;SDS011;16250;49.932;10.980;2023-08-24T12:33:58;3.67;;;3.38;;
29210;SDS011;16250;49.932;10.980;2023-08-24T12:36:06;4.55;;;3.80;;
29210;SDS011;16250;49.932;10.980;2023-08-24T12:38:31;6.57;;;3.90;;
29210;SDS011;16250;49.932;10.980;2023-08-24T12:40:57;7.50;;;4.22;;
29210;SDS011;16250;49.932;10.980;2023-08-24T12:43:22;8.05;;;4.05;;
29210;SDS011;16250;49.932;10.980;2023-08-24T12:45:47;4.28;;;3.88;;
29210;SDS011;16250;49.932;10.980;2023-08-24T12:48:13;6.25;;;3.90;;
29210;SDS011;16250;49.932;10.980;2023-08-24T12:50:39;6.68;;;3.88;;
29210;SDS011;16250;49.932;10.980;2023-08-24T12:53:04;5.47;;;3.55;;
29210;SDS011;16250;49.932;10.980;2023-08-24T12:55:34;5.20;;;4.05;;
29210;SDS011;16250;49.932;10.980;2023-08-24T12:58:01;5.05;;;3.67;;
29210;SDS011;16250;49.932;10.980;2023-08-24T13:00:27;5.57;;;3.85;;
29210;SDS011;16250;49.932;10.980;2023-08-24T13:02:52;6.95;;;4.00;;
29210;SDS011;16250;49.932;10.980;2023-08-24T13:05:18;5.85;;;4.00;;
29210;SDS011;16250;49.932;10.980;2023-08-24T13:07:43;5.45;;;3.78;;
29210;SDS011;16250;49.932;10.980;2023-08-24T13:10:09;6.65;;;4.03;;
29210;SDS011;16250;49.932;10.980;2023-08-24T13:12:35;5.13;;;3.67;;
29210;SDS011;16250;49.932;10.980;2023-08-24T13:15:01;8.30;;;3.70;;
29210;SDS011;16250;49.932;10.980;2023-08-24T13:17:27;7.00;;;4.43;;
29210;SDS011;16250;49.932;10.980;2023-08-24T13:19:54;6.22;;;4.05;;
29210;SDS011;16250;49.932;10.980;2023-08-24T13:22:20;4.32;;;3.72;;
29210;SDS011;16250;49.932;10.980;2023-08-24T13:24:45;6.68;;;4.07;;
29210;SDS011;16250;49.932;10.980;2023-08-24T13:27:11;5.22;;;4.03;;
29210;SDS011;16250;49.932;10.980;2023-08-24T13:29:36;4.75;;;4.07;;
29210;SDS011;16250;49.932;10.980;2023-08-24T13:32:02;6.28;;;3.92;;
29210;SDS011;16250;49.932;10.980;2023-08-24T13:34:28;4.28;;;3.88;;
29210;SDS011;16250;49.932;10.980;2023-08-24T13:36:54;4.88;;;3.63;;
29210;SDS011;16250;49.932;10.980;2023-08-24T13:39:19;7.40;;;4.20;;
29210;SDS011;16250;49.932;10.980;2023-08-24T13:41:44;5.22;;;4.10;;
29210;SDS011;16250;49.932;10.980;2023-08-24T13:44:10;6.65;;;4.25;;
29210;SDS011;16250;49.932;10.980;2023-08-24T13:46:35;5.30;;;3.92;;
29210;SDS011;16250;49.932;10.980;2023-08-24T13:49:00;6.07;;;3.85;;
29210;SDS011;16250;49.932;10.980;2023-08-24T13:51:26;5.18;;;3.72;;
29210;SDS011;16250;49.932;10.980;2023-08-24T13:53:51;4.45;;;3.70;;
29210;SDS011;16250;49.932;10.980;2023-08-24T13:56:17;6.43;;;3.90;;
29210;SDS011;16250;49.932;10.980;2023-08-24T13:58:42;7.43;;;3.55;;
29210;SDS011;16250;49.932;10.980;2023-08-24T14:01:07;6.53;;;4.25;;
29210;SDS011;16250;49.932;10.980;2023-08-24T14:03:35;8.50;;;4.00;;
29210;SDS011;16250;49.932;10.980;2023-08-24T14:06:02;6.40;;;4.18;;
29210;SDS011;16250;49.932;10.980;2023-08-24T14:08:28;6.20;;;3.92;;
29210;SDS011;16250;49.932;10.980;2023-08-24T14:10:53;5.90;;;4.05;;
29210;SDS011;16250;49.932;10.980;2023-08-24T14:13:18;9.35;;;4.63;;
29210;SDS011;16250;49.932;10.980;2023-08-24T14:15:44;6.32;;;4.43;;
29210;SDS011;16250;49.932;10.980;2023-08-24T14:18:11;7.00;;;3.97;;
29210;SDS011;16250;49.932;10.980;2023-08-24T14:20:36;6.95;;;4.00;;
29210;SDS011;16250;49.932;10.980;2023-08-24T14:23:02;6.15;;;3.85;;
29210;SDS011;16250;49.932;10.980;2023-08-24T14:25:28;4.90;;;3.85;;
29210;SDS011;16250;49.932;10.980;2023-08-24T14:27:53;5.18;;;3.85;;
29210;SDS011;16250;49.932;10.980;2023-08-24T14:30:19;6.25;;;4.35;;
29210;SDS011;16250;49.932;10.980;2023-08-24T14:32:44;6.45;;;3.85;;
29210;SDS011;16250;49.932;10.980;2023-08-24T14:35:09;6.32;;;4.15;;
29210;SDS011;16250;49.932;10.980;2023-08-24T14:37:35;6.45;;;3.65;;